Colbert, Washington
Current Conditions -  °F | °C
As of 3:53 AM on Tuesday 27 Jan 2015 (Local Time) from KSFF Reporting Station
Overcast Overcast  
Wind Chill: 28°   Ceiling: 400
Heat Index: 33°   Visibility: 10mi
Dew Point: 30°   Wind: 6mph
Humidity: 89%   Direction: 80°E
Pressure: 30.01"   Gusts: NA
Location:  47.83°N, 117.34°W
Report Text: KSFF 271153Z AUTO 08005KT 10SM OVC004 01/M01 A3001 RMK AO2 SLP170 I1000 I6000 T00061011 10022 20000 58002
Loading
Personal Weather Stations






























Interactive Weather Map New forecast layout! Learn more

10-Day Weather Forecast

Advertisements
Track Severe Weather on mobile